ADDS METAR Data INFO
IDs: Format: Raw Decoded Include TAF

Data at: 0027 UTC 17 Dec 2017

KTOR 162353Z AUTO 08008KT 10SM OVC021 02/M02 A2992 RMK AO2 SLP142 T00171022 10044 20017 53020
KTOR 162253Z AUTO 05010KT 10SM BKN021 03/M02 A2989 RMK AO2 SLP128 T00281017
KTOR 162153Z AUTO 06010KT 10SM SCT026 03/M02 A2986 RMK AO2 SLP113 T00331022
KTOR 162137Z AUTO 04009KT 10SM BKN026 03/M02 A2987 RMK AO2 T00331022
KTOR 162053Z AUTO 04009KT 10SM CLR 03/M02 A2986 RMK AO2 SLP109 T00331022 56010
KTOR 161953Z AUTO 05008KT 10SM CLR 04/M03 A2986 RMK AO2 SLP109 T00391033
KTOR 161853Z AUTO 05012KT 10SM CLR 04/M06 A2987 RMK AO2 SLP111 T00441056
KTOR 161753Z AUTO 04010KT 10SM CLR 04/M06 A2989 RMK AO2 SLP121 T00391056 10044 20011 51010
KTOR 161653Z AUTO 02009KT 10SM CLR 04/M07 A2988 RMK AO2 SLP117 T00391067
KTOR 161553Z AUTO 33004KT 10SM CLR 03/M08 A2986 RMK AO2 SLP112 T00281078
KTOR 161453Z AUTO 35006KT 10SM FEW120 01/M10 A2985 RMK AO2 SLP109 T00111100 51025
KTOR 161353Z AUTO 32009KT 10SM CLR 03/M11 A2984 RMK AO2 SLP102 T00331106
KTOR 161253Z AUTO 34010KT 10SM CLR 04/M11 A2980 RMK AO2 SLP090 T00391111
KTOR 161153Z AUTO 35004KT 10SM CLR 04/M13 A2977 RMK AO2 SLP077 T00441128 10100 20039 53010
KTOR 161053Z AUTO 00000KT 10SM CLR 04/M13 A2975 RMK AO2 SLP064 T00441133
KTOR 160953Z AUTO 33013KT 10SM CLR 07/M13 A2974 RMK AO2 SLP052 T00721133
KTOR 160853Z AUTO 30013KT 10SM CLR 08/M14 A2974 RMK AO2 SLP052 T00831139 55004
KTOR 160753Z AUTO 30013KT 10SM CLR 09/M14 A2972 RMK AO2 SLP045 T00941144
KTOR 160653Z AUTO 27008KT 10SM CLR 09/M15 A2974 RMK AO2 SLP051 T00941150 401391128
KTOR 160553Z AUTO 20004KT 10SM CLR 08/M14 A2975 RMK AO2 SLP063 T00781144 10111 20061 55003
KTOR 160453Z AUTO 29007KT 10SM CLR 09/M14 A2974 RMK AO2 SLP061 T00891144
KTOR 160353Z AUTO 29012KT 10SM CLR 09/M14 A2974 RMK AO2 SLP065 T00891144
KTOR 160253Z AUTO 25006KT 10SM CLR 11/M14 A2976 RMK AO2 SLP082 T01061139 56013
KTOR 160153Z AUTO 30010KT 10SM CLR 09/M13 A2977 RMK AO2 SLP088 T00941128
KTOR 160053Z AUTO 31007KT 10SM CLR 09/M12 A2979 RMK AO2 SLP099 T00941122
KTOR 152353Z AUTO 31010KT 10SM CLR 10/M11 A2980 RMK AO2 PK WND 28026/2314 SLP104 T01001111 10139 20094 55006
KTOR 152253Z AUTO 28020G33KT 10SM CLR 12/M11 A2980 RMK AO2 PK WND 27033/2244 SLP109 T01171106
KTOR 152153Z AUTO 27012G19KT 10SM CLR 13/M09 A2980 RMK AO2 PK WND 28026/2125 SLP109 T01331089
KTOR 152053Z AUTO 28015G30KT 10SM CLR 13/M09 A2982 RMK AO2 PK WND 28031/2033 SLP115 T01281089 56025
KTOR 151953Z AUTO 28016G26KT 10SM CLR 13/M09 A2985 RMK AO2 PK WND 28026/1947 SLP127 T01281089
KTOR 151853Z AUTO 29014KT 10SM CLR 12/M09 A2987 RMK AO2 PK WND 27026/1818 SLP133 T01221089
KTOR 151753Z AUTO 28019G27KT 10SM CLR 10/M09 A2990 RMK AO2 PK WND 27027/1734 SLP145 T01001094 10100 21067 58013
KTOR 151653Z AUTO 28010KT 10SM CLR 09/M09 A2994 RMK AO2 SLP162 T00891094
KTOR 151553Z AUTO 30008KT 10SM CLR 05/M08 A2994 RMK AO2 SLP165 T00501083
KTOR 151453Z AUTO 32004KT 10SM CLR M02/M09 A2995 RMK AO2 SLP175 T10171089 56013
KTOR 151353Z AUTO 26004KT 10SM CLR M03/M09 A2995 RMK AO2 SLP181 T10331089
KTOR 151253Z AUTO 32005KT 10SM CLR M04/M09 A2997 RMK AO2 SLP185 T10441094